Time;durP1;ratioP1;P1;durP2;ratioP2;P2;SDS_P1;SDS_P2;PMS_P1;PMS_P2;Temp;Humidity;BMP_temperature;BMP_pressure;BME280_temperature;BME280_humidity;BME280_pressure;Samples;Min_cycle;Max_cycle;Signal;HPM_P1;HPM_P2
2024/03/08 00:00:42;;;;;;;33.45;17.92;;;;;;;2.08;100.00;68616.34;5104312;28;20048;-46
2024/03/08 00:03:12;;;;;;;30.40;17.48;;;;;;;2.05;100.00;68610.28;5102815;28;20444;-48
2024/03/08 00:05:41;;;;;;;30.83;17.63;;;;;;;2.02;100.00;68604.81;5104516;28;20048;-47
2024/03/08 00:08:09;;;;;;;32.00;18.70;;;;;;;2.00;100.00;68603.09;5102348;28;20040;-46
2024/03/08 00:10:41;;;;;;;32.53;17.55;;;;;;;1.99;100.00;68607.06;5110603;28;20043;-47
2024/03/08 00:13:09;;;;;;;33.55;16.92;;;;;;;1.93;100.00;68594.97;5101235;28;20044;-46
2024/03/08 00:15:41;;;;;;;33.17;16.90;;;;;;;1.92;100.00;68600.94;5092509;28;20105;-47
2024/03/08 00:18:10;;;;;;;30.67;17.15;;;;;;;1.89;100.00;68594.91;5091045;28;20071;-49
2024/03/08 00:20:41;;;;;;;30.27;17.48;;;;;;;1.86;100.00;68592.56;5092487;28;20043;-49
2024/03/08 00:23:12;;;;;;;30.83;17.40;;;;;;;1.82;100.00;68584.78;5100065;28;20032;-49
2024/03/08 00:25:41;;;;;;;29.10;17.10;;;;;;;1.80;100.00;68585.63;5102408;28;20043;-45
2024/03/08 00:28:13;;;;;;;31.88;17.90;;;;;;;1.78;100.00;68583.31;5112139;28;20478;-50
2024/03/08 00:30:45;;;;;;;31.90;16.73;;;;;;;1.79;100.00;68581.31;5096180;28;20047;-48
2024/03/08 00:33:13;;;;;;;30.63;16.90;;;;;;;1.74;100.00;68573.53;5103240;28;20048;-48
2024/03/08 00:35:43;;;;;;;30.75;16.98;;;;;;;1.76;100.00;68575.84;5096186;28;20067;-48
2024/03/08 00:38:13;;;;;;;30.35;16.98;;;;;;;1.72;100.00;68570.63;5096226;28;20036;-46
2024/03/08 00:40:41;;;;;;;31.95;17.80;;;;;;;1.72;100.00;68575.78;5114595;28;20047;-46
2024/03/08 00:43:10;;;;;;;29.02;16.65;;;;;;;1.69;100.00;68572.88;5107273;28;20040;-50
2024/03/08 00:45:38;;;;;;;30.10;17.10;;;;;;;1.64;100.00;68567.09;5114346;28;20139;-49
2024/03/08 00:48:07;;;;;;;35.95;16.90;;;;;;;1.62;100.00;68565.38;5106664;28;20032;-47
2024/03/08 00:50:36;;;;;;;29.10;17.70;;;;;;;1.60;100.00;68563.03;5098083;28;20048;-45
2024/03/08 00:53:06;;;;;;;29.35;17.70;;;;;;;1.60;100.00;68557.88;5100428;27;20127;-45
2024/03/08 00:55:34;;;;;;;28.58;17.13;;;;;;;1.67;100.00;68570.56;5111437;28;20073;-46
2024/03/08 00:58:03;;;;;;;29.90;17.25;;;;;;;1.60;100.00;68559.88;5108933;28;20480;-48
2024/03/08 01:00:31;;;;;;;30.52;17.05;;;;;;;1.56;100.00;68553.25;5103761;28;20549;-47
2024/03/08 01:02:59;;;;;;;30.77;17.27;;;;;;;1.57;100.00;68559.56;5106562;28;20145;-50
2024/03/08 01:05:28;;;;;;;28.15;16.58;;;;;;;1.59;100.00;68558.72;5113063;28;20138;-47
2024/03/08 01:07:56;;;;;;;30.60;16.95;;;;;;;1.56;100.00;68558.41;5102463;28;20036;-50
2024/03/08 01:10:27;;;;;;;28.75;17.63;;;;;;;1.50;100.00;68549.47;5111161;28;20036;-47
2024/03/08 01:12:56;;;;;;;26.90;16.55;;;;;;;1.53;100.00;68552.34;5087988;28;20063;-49
2024/03/08 01:15:28;;;;;;;26.48;16.65;;;;;;;1.49;100.00;68550.88;5102942;28;20109;-48
2024/03/08 01:17:56;;;;;;;27.23;16.90;;;;;;;1.44;100.00;68539.94;5106693;27;20525;-47
2024/03/08 01:20:25;;;;;;;28.00;17.33;;;;;;;1.43;100.00;68541.34;5098939;28;20399;-48
2024/03/08 01:22:54;;;;;;;25.40;16.15;;;;;;;1.45;100.00;68543.09;5103073;28;20083;-50
2024/03/08 01:25:22;;;;;;;30.65;17.05;;;;;;;1.48;100.00;68547.13;5102616;28;20483;-45
2024/03/08 01:27:53;;;;;;;31.02;17.45;;;;;;;1.42;100.00;68540.19;5108037;28;20036;-48
2024/03/08 01:30:21;;;;;;;28.55;17.40;;;;;;;1.41;100.00;68544.19;5091177;28;20044;-56
2024/03/08 01:32:50;;;;;;;29.50;16.88;;;;;;;1.37;100.00;68531.81;5091177;28;20044;-55
2024/03/08 01:35:18;;;;;;;29.70;18.10;;;;;;;1.39;100.00;68536.13;5096120;28;20055;-56
2024/03/08 01:37:47;;;;;;;28.67;17.05;;;;;;;1.33;100.00;68530.34;5096518;28;20051;-54
2024/03/08 01:40:16;;;;;;;31.20;18.02;;;;;;;1.35;100.00;68532.66;5092948;28;20499;-55
2024/03/08 01:42:47;;;;;;;28.13;17.77;;;;;;;1.35;100.00;68535.22;5097582;28;20046;-54
2024/03/08 01:45:17;;;;;;;29.80;17.25;;;;;;;1.38;100.00;68537.53;5101907;28;20074;-56
2024/03/08 01:47:48;;;;;;;26.70;16.30;;;;;;;1.38;100.00;68540.13;5102294;28;20423;-54
2024/03/08 01:50:16;;;;;;;26.50;16.88;;;;;;;1.35;100.00;68532.09;5113262;28;20065;-55
2024/03/08 01:52:45;;;;;;;29.30;17.55;;;;;;;1.31;100.00;68535.75;5112761;28;20043;-56
2024/03/08 01:55:15;;;;;;;29.38;18.30;;;;;;;1.30;100.00;68526.28;5110082;28;20072;-55
2024/03/08 01:57:44;;;;;;;28.30;17.35;;;;;;;1.25;100.00;68520.50;5094825;28;20123;-56
2024/03/08 02:00:14;;;;;;;29.02;17.85;;;;;;;1.22;100.00;68519.59;5112158;28;20513;-56
2024/03/08 02:02:46;;;;;;;29.88;18.33;;;;;;;1.24;100.00;68517.38;5105947;28;20055;-56
2024/03/08 02:05:16;;;;;;;27.42;17.13;;;;;;;1.19;100.00;68514.13;5102541;28;20535;-56
2024/03/08 02:07:44;;;;;;;29.73;18.67;;;;;;;1.15;100.00;68512.06;5097730;28;20108;-54
2024/03/08 02:10:13;;;;;;;27.70;17.15;;;;;;;1.14;100.00;68511.47;5107917;28;20105;-57
2024/03/08 02:12:42;;;;;;;29.50;17.95;;;;;;;1.13;100.00;68509.75;5109086;28;20047;-57
2024/03/08 02:15:10;;;;;;;29.38;18.52;;;;;;;1.14;100.00;68508.91;5100691;28;20097;-48
2024/03/08 02:17:39;;;;;;;28.58;18.00;;;;;;;1.09;100.00;68503.13;5107513;27;20521;-47
2024/03/08 02:20:13;;;;;;;27.63;17.42;;;;;;;1.12;100.00;68506.59;5102459;28;20047;-48
2024/03/08 02:22:43;;;;;;;29.40;18.90;;;;;;;1.07;100.00;68500.25;5099874;28;20421;-46
2024/03/08 02:25:12;;;;;;;30.38;18.20;;;;;;;0.98;100.00;68492.97;5094107;28;20040;-48
2024/03/08 02:27:41;;;;;;;30.95;18.98;;;;;;;0.97;100.00;68486.69;5101624;28;20036;-47
2024/03/08 02:30:12;;;;;;;31.15;18.10;;;;;;;0.92;100.00;68486.03;5094069;28;20434;-47
2024/03/08 02:32:44;;;;;;;28.45;17.95;;;;;;;0.88;100.00;68478.81;5112528;28;20042;-47
2024/03/08 02:35:12;;;;;;;28.25;18.33;;;;;;;0.90;100.00;68483.69;5104556;28;20055;-45
2024/03/08 02:37:44;;;;;;;30.52;18.75;;;;;;;0.89;100.00;68482.56;5100011;28;20552;-45
2024/03/08 02:40:13;;;;;;;27.88;17.75;;;;;;;0.84;100.00;68475.34;5108745;28;20058;-46
2024/03/08 02:42:41;;;;;;;27.75;18.35;;;;;;;0.90;100.00;68483.69;5101588;28;20040;-50
2024/03/08 02:45:10;;;;;;;30.17;18.85;;;;;;;0.91;100.00;68487.44;5108585;28;20051;-46
2024/03/08 02:47:39;;;;;;;31.83;19.40;;;;;;;0.83;100.00;68468.47;5085810;28;20060;-48
2024/03/08 02:50:11;;;;;;;28.83;18.30;;;;;;;0.77;100.00;68472.38;5101264;28;20071;-45
2024/03/08 02:52:41;;;;;;;29.80;18.65;;;;;;;0.79;100.00;68467.00;5111321;28;20402;-49
2024/03/08 02:55:15;;;;;;;29.98;19.23;;;;;;;0.80;100.00;68473.28;5110588;28;20036;-49
2024/03/08 02:57:44;;;;;;;28.50;17.92;;;;;;;0.77;100.00;68467.22;5103619;28;20051;-47
2024/03/08 03:00:15;;;;;;;28.65;18.92;;;;;;;0.75;100.00;68466.91;5103543;28;20039;-50
2024/03/08 03:02:44;;;;;;;30.23;19.10;;;;;;;0.74;100.00;68463.78;5109521;28;20047;-47
2024/03/08 03:05:12;;;;;;;31.08;18.98;;;;;;;0.72;100.00;68466.56;5105101;28;20093;-47
2024/03/08 03:07:40;;;;;;;31.13;19.55;;;;;;;0.72;100.00;68466.56;5094037;28;20050;-46
2024/03/08 03:10:12;;;;;;;30.63;18.52;;;;;;;0.66;100.00;68457.06;5097877;28;20044;-45
2024/03/08 03:12:40;;;;;;;28.23;18.83;;;;;;;0.69;100.00;68459.97;5093866;28;20062;-47
2024/03/08 03:15:09;;;;;;;27.60;18.35;;;;;;;0.68;100.00;68459.38;5105868;28;20165;-47
2024/03/08 03:17:38;;;;;;;27.13;18.10;;;;;;;0.69;100.00;68455.41;5100564;28;20100;-46
2024/03/08 03:20:12;;;;;;;31.88;19.35;;;;;;;0.62;100.00;68449.88;5100300;28;20029;-47
2024/03/08 03:22:42;;;;;;;30.25;19.05;;;;;;;0.61;100.00;68446.16;5099388;28;20502;-47
2024/03/08 03:25:12;;;;;;;30.75;18.83;;;;;;;0.55;100.00;68444.91;5104487;28;20051;-51
2024/03/08 03:27:41;;;;;;;30.27;19.38;;;;;;;0.50;100.00;68436.56;5101372;28;20498;-46
2024/03/08 03:30:21;;;;;;;32.67;19.35;;;;;;;0.52;100.00;68440.88;5098041;28;20551;-46
2024/03/08 03:32:50;;;;;;;31.05;19.52;;;;;;;0.50;100.00;68439.72;5100772;28;20052;-48
2024/03/08 03:35:20;;;;;;;32.55;19.80;;;;;;;0.48;100.00;68437.41;5099771;28;20044;-46
2024/03/08 03:38:01;;;;;;;32.92;19.88;;;;;;;0.46;100.00;68426.78;5110368;28;20127;-55
2024/03/08 03:40:31;;;;;;;33.40;19.80;;;;;;;0.43;100.00;68425.91;5095525;28;20048;-47
2024/03/08 03:42:59;;;;;;;28.85;18.27;;;;;;;0.46;100.00;68434.50;5092729;28;20105;-46
2024/03/08 03:45:28;;;;;;;29.75;18.98;;;;;;;0.42;100.00;68424.75;5092823;28;20056;-51
2024/03/08 03:47:56;;;;;;;31.05;18.65;;;;;;;0.41;100.00;68429.31;5100924;28;20048;-47
2024/03/08 03:50:27;;;;;;;29.95;19.45;;;;;;;0.37;100.00;68418.94;5099734;28;20055;-49
2024/03/08 03:52:55;;;;;;;27.90;18.83;;;;;;;0.40;100.00;68427.56;5108614;28;20472;-50
2024/03/08 03:55:24;;;;;;;30.48;20.42;;;;;;;0.34;100.00;68421.19;5104575;28;20390;-48
2024/03/08 03:57:54;;;;;;;30.58;19.95;;;;;;;0.34;100.00;68423.75;5093205;28;20048;-47
2024/03/08 04:00:22;;;;;;;34.05;20.25;;;;;;;0.27;100.00;68411.13;5097900;28;20072;-48
2024/03/08 04:02:51;;;;;;;32.28;19.67;;;;;;;0.27;100.00;68413.09;5101299;28;20386;-48
2024/03/08 04:05:19;;;;;;;30.52;19.50;;;;;;;0.28;100.00;68416.81;5092207;28;20040;-47
2024/03/08 04:07:50;;;;;;;30.52;19.73;;;;;;;0.27;100.00;68410.53;5094963;28;20478;-49
2024/03/08 04:10:19;;;;;;;32.85;19.75;;;;;;;0.26;100.00;68412.53;5097072;28;20044;-48
2024/03/08 04:12:48;;;;;;;31.38;19.98;;;;;;;0.26;100.00;68409.94;5100830;28;20499;-49
2024/03/08 04:15:17;;;;;;;31.60;20.00;;;;;;;0.21;100.00;68406.72;5097228;28;20043;-50
2024/03/08 04:17:46;;;;;;;30.92;19.08;;;;;;;0.17;100.00;68402.66;5095295;28;20063;-46
2024/03/08 04:20:14;;;;;;;32.80;19.95;;;;;;;0.19;100.00;68404.41;5093631;28;20071;-47
2024/03/08 04:22:44;;;;;;;30.50;18.88;;;;;;;0.17;100.00;68402.09;5096456;28;20046;-47
2024/03/08 04:25:13;;;;;;;28.77;18.48;;;;;;;0.15;100.00;68395.25;5097764;28;20036;-48
2024/03/08 04:27:41;;;;;;;31.20;19.35;;;;;;;0.17;100.00;68402.09;5095659;28;20399;-47
2024/03/08 04:30:11;;;;;;;31.58;18.45;;;;;;;0.14;100.00;68396.06;5089354;28;20035;-46
2024/03/08 04:32:42;;;;;;;30.30;19.35;;;;;;;0.14;100.00;68396.06;5100849;28;20448;-49
2024/03/08 04:35:12;;;;;;;29.50;19.30;;;;;;;0.13;100.00;68395.47;5084700;28;20075;-47
2024/03/08 04:37:41;;;;;;;29.63;18.58;;;;;;;0.11;100.00;68390.59;5099336;28;20134;-46
2024/03/08 04:40:12;;;;;;;33.85;20.42;;;;;;;0.11;100.00;68393.19;5084036;28;20064;-47
2024/03/08 04:42:41;;;;;;;33.67;20.67;;;;;;;0.11;100.00;68395.75;5096492;28;20506;-46
2024/03/08 04:45:10;;;;;;;31.88;20.17;;;;;;;0.03;100.00;68386.50;5099655;28;20379;-46
2024/03/08 04:47:40;;;;;;;30.48;20.10;;;;;;;0.04;100.00;68392.19;5096369;28;20043;-48
2024/03/08 04:50:11;;;;;;;30.67;19.77;;;;;;;0.03;100.00;68388.47;5104159;28;20071;-49
2024/03/08 04:52:39;;;;;;;30.58;19.67;;;;;;;0.00;100.00;68383.03;5096473;28;20123;-46
2024/03/08 04:55:08;;;;;;;31.13;19.70;;;;;;;0.06;100.00;68391.94;5094493;28;20120;-47
2024/03/08 04:57:36;;;;;;;31.00;19.27;;;;;;;0.05;100.00;68388.22;5091592;28;20070;-47
2024/03/08 05:00:10;;;;;;;33.90;19.80;;;;;;;0.03;100.00;68383.91;5086047;28;20044;-49
2024/03/08 05:02:41;;;;;;;31.52;19.60;;;;;;;0.02;100.00;68382.75;5089011;28;20113;-47
2024/03/08 05:05:11;;;;;;;29.92;19.67;;;;;;;0.05;100.00;68388.78;5091637;28;20064;-46
2024/03/08 05:07:40;;;;;;;34.58;20.73;;;;;;;0.04;100.00;68385.09;5092316;28;20115;-47
2024/03/08 05:10:09;;;;;;;30.90;19.70;;;;;;;0.04;100.00;68385.09;5092007;28;20027;-51
2024/03/08 05:12:38;;;;;;;33.35;20.13;;;;;;;0.02;100.00;68379.63;5101442;28;20040;-48
2024/03/08 05:15:08;;;;;;;31.35;19.80;;;;;;;0.00;100.00;68385.59;5095275;28;20501;-46
2024/03/08 05:17:36;;;;;;;33.28;19.83;;;;;;;-0.03;100.00;68377.56;5094496;28;20216;-47
2024/03/08 05:20:08;;;;;;;31.60;20.13;;;;;;;-0.02;100.00;68383.25;5092638;28;20394;-48
2024/03/08 05:22:36;;;;;;;32.03;19.20;;;;;;;-0.01;100.00;68385.00;5094223;28;20056;-47
2024/03/08 05:25:07;;;;;;;34.20;19.42;;;;;;;-0.02;100.00;68383.25;5093503;28;20048;-50
2024/03/08 05:27:35;;;;;;;34.78;21.52;;;;;;;-0.02;100.00;68378.13;5093958;28;20044;-52
2024/03/08 05:30:05;;;;;;;33.15;19.67;;;;;;;-0.04;100.00;68378.97;5094361;28;20043;-50
2024/03/08 05:32:33;;;;;;;34.50;19.75;;;;;;;0.00;100.00;68383.03;5095641;27;20090;-45
2024/03/08 05:35:07;;;;;;;32.22;19.92;;;;;;;0.03;100.00;68391.03;5094587;28;20032;-48
2024/03/08 05:37:35;;;;;;;30.77;20.13;;;;;;;-0.02;100.00;68381.25;5089100;28;20467;-46
2024/03/08 05:40:08;;;;;;;29.75;19.85;;;;;;;-0.07;100.00;68374.91;5092855;28;20379;-47
2024/03/08 05:42:43;;;;;;;32.17;20.27;;;;;;;-0.07;100.00;68374.91;5094165;28;20040;-45
2024/03/08 05:45:12;;;;;;;32.00;20.67;;;;;;;-0.02;100.00;68376.13;5100465;28;20487;-47
2024/03/08 05:47:40;;;;;;;33.05;19.50;;;;;;;-0.04;100.00;68378.38;5093357;28;20063;-49
2024/03/08 05:50:11;;;;;;;35.40;20.00;;;;;;;-0.07;100.00;68372.94;5093657;28;20526;-48
2024/03/08 05:52:39;;;;;;;33.67;20.27;;;;;;;-0.04;100.00;68376.41;5095231;28;20495;-47
2024/03/08 05:55:10;;;;;;;34.15;21.15;;;;;;;-0.12;100.00;68369.13;5095463;28;20040;-49
2024/03/08 05:57:39;;;;;;;33.53;21.13;;;;;;;-0.14;100.00;68361.69;5094129;28;20039;-47
2024/03/08 06:00:10;;;;;;;34.72;21.88;;;;;;;-0.14;100.00;68364.25;5092997;28;20052;-47
2024/03/08 06:02:40;;;;;;;33.28;20.23;;;;;;;-0.12;100.00;68364.00;5093513;28;20048;-47
2024/03/08 06:05:12;;;;;;;33.17;21.23;;;;;;;-0.15;100.00;68365.66;5092226;28;20403;-54
2024/03/08 06:07:41;;;;;;;34.63;20.52;;;;;;;-0.16;100.00;68365.09;5097142;28;20047;-54
2024/03/08 06:10:12;;;;;;;38.33;21.52;;;;;;;-0.09;100.00;68370.03;5093279;28;20072;-56
2024/03/08 06:12:41;;;;;;;32.70;20.67;;;;;;;-0.12;100.00;68361.44;5098086;28;20533;-56
2024/03/08 06:15:14;;;;;;;33.38;21.38;;;;;;;-0.11;100.00;68368.31;5096989;28;20044;-54
2024/03/08 06:17:43;;;;;;;34.42;21.00;;;;;;;-0.14;100.00;68367.38;5094890;28;20040;-56
2024/03/08 06:20:13;;;;;;;38.88;22.42;;;;;;;-0.19;100.00;68362.19;5100438;28;20037;-55
2024/03/08 06:22:42;;;;;;;35.28;20.75;;;;;;;-0.17;100.00;68364.50;5091459;28;20491;-55
2024/03/08 06:25:13;;;;;;;36.28;21.00;;;;;;;-0.15;100.00;68368.22;5098028;28;20052;-55
2024/03/08 06:27:42;;;;;;;34.55;20.33;;;;;;;-0.20;100.00;68361.03;5089116;28;20115;-54
2024/03/08 06:30:12;;;;;;;34.28;20.83;;;;;;;-0.17;100.00;68361.94;5091655;28;20126;-55
2024/03/08 06:32:42;;;;;;;36.88;21.90;;;;;;;-0.21;100.00;68356.72;5091140;28;20048;-55
2024/03/08 06:35:13;;;;;;;33.97;20.70;;;;;;;-0.19;100.00;68359.63;5092693;28;20098;-55
2024/03/08 06:37:43;;;;;;;36.30;21.05;;;;;;;-0.20;100.00;68361.03;5091534;28;20058;-53
2024/03/08 06:40:14;;;;;;;35.28;19.98;;;;;;;-0.22;100.00;68353.00;5090376;28;20036;-54
2024/03/08 06:42:43;;;;;;;35.70;21.05;;;;;;;-0.24;100.00;68351.28;5094468;28;20071;-55
2024/03/08 06:45:12;;;;;;;35.97;21.58;;;;;;;-0.22;100.00;68356.16;5093405;28;20559;-53
2024/03/08 06:47:43;;;;;;;38.25;21.98;;;;;;;-0.15;100.00;68366.25;5093236;28;20445;-55
2024/03/08 06:50:15;;;;;;;37.05;22.52;;;;;;;-0.17;100.00;68363.91;5089974;28;20051;-54
2024/03/08 06:52:44;;;;;;;35.17;21.70;;;;;;;-0.09;100.00;68370.03;5091871;28;20046;-54
2024/03/08 06:55:12;;;;;;;32.80;21.73;;;;;;;-0.10;100.00;68371.44;5092934;28;20464;-55
2024/03/08 06:57:41;;;;;;;34.92;22.23;;;;;;;-0.08;100.00;68373.75;5094284;28;20051;-54
2024/03/08 07:00:13;;;;;;;37.08;21.73;;;;;;;-0.06;100.00;68374.06;5089347;28;20488;-54
2024/03/08 07:02:45;;;;;;;35.20;21.40;;;;;;;0.01;100.00;68384.16;5094290;28;20465;-55
2024/03/08 07:05:16;;;;;;;33.20;21.00;;;;;;;0.04;100.00;68385.09;5105078;28;20044;-54
2024/03/08 07:07:44;;;;;;;35.03;21.30;;;;;;;0.02;100.00;68385.31;5101091;28;20052;-55
2024/03/08 07:10:15;;;;;;;36.45;22.42;;;;;;;0.05;100.00;68386.22;5104410;28;20036;-54
2024/03/08 07:12:46;;;;;;;37.55;22.73;;;;;;;0.13;100.00;68395.47;5104839;28;20576;-55
2024/03/08 07:15:14;;;;;;;41.13;22.42;;;;;;;0.19;100.00;68398.69;5105470;28;21183;-54
2024/03/08 07:17:44;;;;;;;35.47;22.23;;;;;;;0.17;100.00;68400.09;5106823;28;20407;-55
2024/03/08 07:20:18;;;;;;;35.22;21.92;;;;;;;0.18;100.00;68403.25;5101587;28;20040;-54
2024/03/08 07:22:50;;;;;;;35.05;21.92;;;;;;;0.26;100.00;68411.94;5089941;28;20490;-55
2024/03/08 07:25:23;;;;;;;36.53;21.75;;;;;;;0.34;100.00;68418.63;5089028;28;20052;-54
2024/03/08 07:27:52;;;;;;;36.38;22.48;;;;;;;0.38;100.00;68425.25;5100492;28;20081;-54
2024/03/08 07:33:07;;;;;;;35.25;20.83;;;;;;;0.51;100.00;68435.16;5095085;28;20063;-55
2024/03/08 07:35:37;;;;;;;34.30;21.10;;;;;;;0.63;100.00;68448.47;5104493;28;20101;-55
2024/03/08 07:38:07;;;;;;;38.08;21.80;;;;;;;0.67;100.00;68453.09;5095631;28;20122;-55
2024/03/08 07:40:38;;;;;;;34.80;21.90;;;;;;;0.75;100.00;68467.50;5099881;28;20046;-54
2024/03/08 07:43:06;;;;;;;35.72;22.20;;;;;;;0.91;100.00;68485.44;5096270;28;20067;-54
2024/03/08 07:45:35;;;;;;;36.28;22.95;;;;;;;1.03;100.00;68498.75;5104106;28;20040;-55
2024/03/08 07:48:09;;;;;;;38.65;23.17;;;;;;;1.08;100.00;68499.41;5100004;28;20552;-55
2024/03/08 07:50:40;;;;;;;36.50;21.70;;;;;;;1.15;100.00;68510.06;5093910;28;20089;-55
2024/03/08 07:53:09;;;;;;;33.33;21.65;;;;;;;1.20;100.00;68515.31;5102288;28;20043;-55
2024/03/08 07:55:39;;;;;;;36.25;21.50;;;;;;;1.26;100.00;68521.66;5104200;28;20036;-55
2024/03/08 07:58:10;;;;;;;36.22;22.73;;;;;;;1.34;100.00;68531.50;5100539;28;20039;-55
2024/03/08 08:00:39;;;;;;;33.80;22.67;;;;;;;1.42;100.00;68537.63;5104753;28;20032;-54
2024/03/08 08:03:08;;;;;;;34.78;20.58;;;;;;;1.58;100.00;68557.56;5102200;28;20044;-55
2024/03/08 08:05:38;;;;;;;37.65;22.40;;;;;;;1.60;100.00;68560.47;5104401;28;20090;-54
2024/03/08 08:08:10;;;;;;;35.63;22.27;;;;;;;1.67;100.00;68571.13;5090568;28;20048;-53
2024/03/08 08:10:42;;;;;;;34.70;21.35;;;;;;;1.84;100.00;68590.25;5088589;28;20063;-55
2024/03/08 08:13:10;;;;;;;35.63;22.95;;;;;;;1.97;100.00;68599.59;5103458;28;20127;-55
2024/03/08 08:15:39;;;;;;;34.47;21.33;;;;;;;2.12;100.00;68615.81;5102207;28;20469;-55
2024/03/08 08:18:10;;;;;;;35.42;21.00;;;;;;;2.25;100.00;68635.47;5101349;28;20486;-55
2024/03/08 08:20:38;;;;;;;35.72;22.17;;;;;;;2.32;100.00;68641.00;5094845;28;20071;-55
2024/03/08 08:23:08;;;;;;;34.78;22.25;;;;;;;2.42;100.00;68655.16;5096153;28;20079;-55
2024/03/08 08:25:37;;;;;;;35.67;21.33;;;;;;;2.57;100.00;68674.56;5092852;28;20052;-56
2024/03/08 08:28:06;;;;;;;33.83;21.65;;;;;;;2.72;100.00;68681.06;5110483;28;20067;-56
2024/03/08 08:30:34;;;;;;;34.13;21.10;;;;;;;2.87;100.00;68701.03;5102943;28;20097;-55
2024/03/08 08:33:05;;;;;;;32.33;21.55;;;;;;;2.99;100.00;68713.81;5095351;28;20062;-56
2024/03/08 08:35:33;;;;;;;34.58;21.85;;;;;;;3.07;100.00;68720.50;5102603;28;20445;-55
2024/03/08 08:38:03;;;;;;;36.50;22.05;;;;;;;3.16;100.00;68732.94;5106792;28;20488;-56
2024/03/08 08:40:33;;;;;;;31.38;20.30;;;;;;;3.31;100.00;68752.94;5096358;28;20551;-55
2024/03/08 08:43:04;;;;;;;35.47;22.38;;;;;;;3.42;100.00;68767.09;5096098;28;20678;-55
2024/03/08 08:45:33;;;;;;;32.38;21.48;;;;;;;3.60;100.00;68787.41;5097840;28;20126;-56
2024/03/08 08:48:01;;;;;;;33.83;21.15;;;;;;;3.71;100.00;68798.16;5108850;28;20070;-56
2024/03/08 08:50:29;;;;;;;33.50;22.02;;;;;;;3.81;100.00;68811.19;5108094;28;20047;-49
2024/03/08 08:52:58;;;;;;;34.47;21.30;;;;;;;3.83;100.00;68813.50;5103433;28;20043;-48
2024/03/08 08:55:26;;;;;;;32.78;21.33;;;;;;;3.96;100.00;68825.44;5102979;28;20035;-46
2024/03/08 08:57:56;;;;;;;30.75;19.98;;;;;;;4.02;100.00;68833.00;5095705;28;20044;-46
2024/03/08 09:00:26;;;;;;;33.28;20.55;;;;;;;4.17;100.00;68849.25;5119195;27;20097;-47
2024/03/08 09:02:57;;;;;;;33.40;21.75;;;;;;;4.28;100.00;68858.84;5095652;28;20062;-56
2024/03/08 09:05:27;;;;;;;32.78;20.63;;;;;;;4.40;100.00;68875.38;5098091;28;20044;-56
2024/03/08 09:07:55;;;;;;;36.17;21.45;;;;;;;4.53;100.00;68890.47;5106778;28;20048;-55
2024/03/08 09:10:24;;;;;;;33.50;21.00;;;;;;;4.66;100.00;68905.00;5106081;28;20126;-56
2024/03/08 09:12:59;;;;;;;34.78;23.75;;;;;;;4.79;100.00;68918.94;5103601;28;20036;-56
2024/03/08 09:15:28;;;;;;;40.20;28.35;;;;;;;4.84;100.00;68922.16;5094744;28;20499;-56
2024/03/08 09:17:58;;;;;;;39.08;27.10;;;;;;;4.92;100.00;68934.03;5110688;28;20035;-56
2024/03/08 09:20:27;;;;;;;37.92;24.80;;;;;;;5.07;100.00;68948.28;5102121;28;20048;-56
2024/03/08 09:22:55;;;;;;;35.28;22.73;;;;;;;5.25;100.00;68971.22;5102054;28;20040;-57
2024/03/08 09:25:25;;;;;;;33.30;22.30;;;;;;;5.28;100.00;68977.28;5101708;28;20047;-58
2024/03/08 09:27:54;;;;;;;32.80;21.80;;;;;;;5.47;100.00;68998.78;5097799;28;20032;-57
2024/03/08 09:30:23;;;;;;;31.27;21.17;;;;;;;5.66;100.00;69014.53;5113491;28;20081;-57
2024/03/08 09:32:52;;;;;;;30.13;20.77;;;;;;;5.77;100.00;69029.91;5109298;27;20048;-56
2024/03/08 09:35:22;;;;;;;30.73;21.33;;;;;;;6.04;100.00;69060.16;5105008;28;20044;-56
2024/03/08 09:37:51;;;;;;;29.70;20.95;;;;;;;6.28;100.00;69084.31;5100452;28;20097;-56
2024/03/08 09:40:20;;;;;;;28.95;20.27;;;;;;;6.41;100.00;69096.84;5111961;28;20039;-56
2024/03/08 09:42:49;;;;;;;33.17;20.67;;;;;;;6.49;100.00;69111.34;5103096;28;20059;-56
2024/03/08 09:45:18;;;;;;;30.35;20.27;;;;;;;6.65;100.00;69128.78;5109624;28;20380;-57
2024/03/08 09:47:48;;;;;;;27.73;19.83;;;;;;;6.72;100.00;69136.94;5101695;28;20148;-57
2024/03/08 09:50:17;;;;;;;28.08;19.70;;;;;;;6.88;100.00;69155.53;5085147;28;20058;-57
2024/03/08 09:52:50;;;;;;;31.77;20.45;;;;;;;7.00;100.00;69165.78;5103496;28;20052;-57
2024/03/08 09:55:21;;;;;;;27.55;19.48;;;;;;;7.22;100.00;69188.19;5102415;28;20111;-57
2024/03/08 10:00:38;;;;;;;27.40;18.30;;;;;;;7.60;100.00;69234.44;5108331;28;20425;-57
2024/03/08 10:03:08;;;;;;;30.88;18.90;;;;;;;7.59;100.00;69235.28;5094782;28;20123;-57
2024/03/08 10:05:39;;;;;;;28.10;19.65;;;;;;;7.77;100.00;69258.25;5113072;27;20387;-57
2024/03/08 10:08:08;;;;;;;29.33;19.65;;;;;;;7.86;100.00;69263.53;5109669;28;20050;-57
2024/03/08 10:10:37;;;;;;;25.40;17.55;;;;;;;8.04;100.00;69286.53;5104764;28;20040;-58
2024/03/08 10:13:07;;;;;;;27.45;18.10;;;;;;;7.85;100.00;69261.81;5101975;28;20457;-57
2024/03/08 10:15:36;;;;;;;25.63;18.17;;;;;;;8.15;100.00;69301.34;5097335;28;20032;-57
2024/03/08 10:18:04;;;;;;;25.60;17.38;;;;;;;8.47;100.00;69332.31;5098161;28;20043;-57
2024/03/08 10:20:34;;;;;;;23.50;16.90;;;;;;;8.65;100.00;69354.72;5110881;28;20466;-57
2024/03/08 10:23:05;;;;;;;26.77;17.67;;;;;;;8.68;100.00;69358.22;5112439;28;20685;-57
2024/03/08 10:25:39;;;;;;;23.65;17.27;;;;;;;8.68;100.00;69358.22;5112469;28;20510;-57
2024/03/08 10:28:08;;;;;;;26.10;17.38;;;;;;;8.85;100.00;69375.44;5112205;28;20043;-57
2024/03/08 10:30:36;;;;;;;24.52;17.70;;;;;;;8.86;98.53;69381.81;5102464;28;20048;-58
2024/03/08 10:33:06;;;;;;;28.65;18.38;;;;;;;8.99;100.00;69390.56;5098511;28;20040;-57
2024/03/08 10:35:36;;;;;;;24.38;17.23;;;;;;;9.13;99.87;69409.50;5101370;28;20122;-57
2024/03/08 10:38:08;;;;;;;29.08;18.85;;;;;;;9.44;100.00;69442.44;5103492;28;20044;-58
2024/03/08 10:40:41;;;;;;;26.23;17.83;;;;;;;9.58;95.72;69457.59;5108322;28;20113;-58
2024/03/08 10:43:17;;;;;;;25.92;18.52;;;;;;;9.62;96.04;69470.09;5093323;28;20051;-58
2024/03/08 10:45:49;;;;;;;24.58;18.02;;;;;;;9.81;96.77;69487.03;5100266;28;20059;-58
2024/03/08 10:48:31;;;;;;;26.50;17.95;;;;;;;10.08;94.08;69516.78;5104393;28;20054;-58
2024/03/08 10:51:07;;;;;;;26.15;18.27;;;;;;;10.07;94.50;69518.22;5091152;28;20119;-58
2024/03/08 10:53:41;;;;;;;24.17;16.77;;;;;;;10.13;88.06;69525.81;5090187;28;20496;-58
2024/03/08 10:56:10;;;;;;;23.40;17.13;;;;;;;10.35;89.50;69547.75;5095139;28;20058;-58
2024/03/08 10:58:39;;;;;;;23.00;17.05;;;;;;;10.61;92.74;69574.88;5110659;28;20068;-58
2024/03/08 11:01:10;;;;;;;21.27;15.63;;;;;;;10.60;78.48;69576.31;5098253;28;20035;-59
2024/03/08 11:03:53;;;;;;;24.17;17.35;;;;;;;10.52;83.59;69571.63;5102242;28;20097;-58
2024/03/08 11:06:31;;;;;;;22.50;15.45;;;;;;;10.59;80.94;69572.56;5108560;28;20048;-57
2024/03/08 11:09:02;;;;;;;22.10;16.10;;;;;;;10.65;77.12;69584.78;5084792;28;20356;-58
2024/03/08 11:11:32;;;;;;;22.90;16.35;;;;;;;10.89;77.66;69603.19;5102457;28;20039;-58
2024/03/08 11:14:03;;;;;;;21.67;16.40;;;;;;;11.16;80.22;69639.38;5111172;28;20421;-58
2024/03/08 11:16:43;;;;;;;24.38;17.00;;;;;;;11.25;80.85;69647.25;5104896;28;20062;-59
2024/03/08 11:19:31;;;;;;;22.77;16.13;;;;;;;11.30;75.13;69655.13;5099766;28;20379;-58
2024/03/08 11:22:04;;;;;;;21.52;15.45;;;;;;;11.28;71.04;69648.16;5097336;28;20127;-58
2024/03/08 11:24:43;;;;;;;21.35;15.82;;;;;;;11.45;73.63;69669.44;5096524;28;20147;-58
2024/03/08 11:27:12;;;;;;;20.85;15.43;;;;;;;11.50;71.08;69677.91;5085145;28;20044;-59
2024/03/08 11:29:40;;;;;;;25.20;16.08;;;;;;;11.85;72.01;69720.25;5104361;28;20481;-59
2024/03/08 11:32:10;;;;;;;20.52;15.23;;;;;;;12.12;70.60;69745.41;5099388;28;20502;-59
2024/03/08 11:34:40;;;;;;;20.70;14.55;;;;;;;12.31;70.33;69767.03;5106828;28;20049;-59